createdAt,value
2022-12-27T00:03:08.150Z,20.48
2022-12-27T00:08:04.301Z,19.159999999999997
2022-12-27T00:13:00.546Z,17.759999999999998
2022-12-27T00:17:57.815Z,14.6
2022-12-27T00:22:54.039Z,16.2
2022-12-27T00:27:50.300Z,17.339999999999996
2022-12-27T00:32:46.550Z,15.139999999999997
2022-12-27T00:37:42.816Z,19.479999999999997
2022-12-27T00:42:39.099Z,19.06
2022-12-27T00:47:35.331Z,16.32
2022-12-27T00:52:31.617Z,17.22
2022-12-27T00:57:27.853Z,22.26
2022-12-27T01:02:24.252Z,19.439999999999998
2022-12-27T01:07:20.387Z,16
2022-12-27T01:12:15.662Z,18.860000000000003
2022-12-27T01:17:10.893Z,19.24
2022-12-27T01:22:06.170Z,17.68
2022-12-27T01:27:02.443Z,19.979999999999997
2022-12-27T01:31:59.699Z,23.240000000000002
2022-12-27T01:36:56.936Z,19.860000000000003
2022-12-27T01:41:54.201Z,16.06
2022-12-27T01:46:50.485Z,12.479999999999999
2022-12-27T01:51:46.689Z,14.420000000000002
2022-12-27T01:56:45.019Z,10.84
2022-12-27T02:01:45.353Z,12.639999999999999
2022-12-27T02:06:42.519Z,10.4
2022-12-27T02:11:41.749Z,10.379999999999999
2022-12-27T02:16:43.008Z,11.86
2022-12-27T02:21:52.240Z,10.6
2022-12-27T02:32:05.707Z,7.4
2022-12-27T02:37:06.912Z,6.760000000000001
2022-12-27T02:42:06.181Z,7.760000000000001
2022-12-27T02:47:02.451Z,7.3
2022-12-27T02:57:18.908Z,5.26
2022-12-27T03:02:23.334Z,5.52
2022-12-27T03:07:36.361Z,5.999999999999999
2022-12-27T03:12:39.596Z,7.68
2022-12-27T03:17:40.841Z,6.26
2022-12-27T03:22:39.093Z,6.6
2022-12-27T03:27:39.342Z,4.840000000000001
2022-12-27T03:32:39.609Z,4.4
2022-12-27T03:37:38.860Z,4
2022-12-27T03:42:41.089Z,5.96
2022-12-27T03:47:43.354Z,6.42
2022-12-27T03:52:44.552Z,4.119999999999999
2022-12-27T03:57:41.875Z,4.94
2022-12-27T04:02:39.357Z,5.34
2022-12-27T04:07:35.393Z,5.0200000000000005
2022-12-27T04:12:31.615Z,4.5
2022-12-27T04:17:27.852Z,6.74
2022-12-27T04:22:24.131Z,4.720000000000001
2022-12-27T04:27:20.410Z,6.5200000000000005
2022-12-27T04:32:16.646Z,5.159999999999999
2022-12-27T04:37:12.894Z,5
2022-12-27T04:42:10.134Z,7
2022-12-27T04:47:05.393Z,5.659999999999999
2022-12-27T04:52:01.669Z,7.840000000000001
2022-12-27T04:56:57.965Z,4.779999999999999
2022-12-27T05:01:54.291Z,4.340000000000001
2022-12-27T05:06:50.478Z,3.7400000000000007
2022-12-27T05:11:45.744Z,5.7
2022-12-27T05:16:43.021Z,5.220000000000001
2022-12-27T05:21:38.248Z,5.4799999999999995
2022-12-27T05:26:33.552Z,9.02
2022-12-27T05:31:31.907Z,11.74
2022-12-27T05:36:29.025Z,9.260000000000002
2022-12-27T05:41:29.301Z,32.620000000000005
2022-12-27T05:46:25.567Z,27.919999999999998
2022-12-27T05:51:21.765Z,8.079999999999998
2022-12-27T05:56:23.039Z,7.1
2022-12-27T06:01:19.332Z,4.88
2022-12-27T06:06:15.567Z,3.78
2022-12-27T06:11:12.827Z,6.220000000000001
2022-12-27T06:16:11.126Z,13.86
2022-12-27T06:21:08.330Z,7.659999999999999
2022-12-27T06:26:04.547Z,7.0200000000000005
2022-12-27T06:31:00.840Z,8.120000000000001
2022-12-27T06:35:57.115Z,9.2
2022-12-27T06:40:53.368Z,12.959999999999999
2022-12-27T06:45:54.631Z,16.240000000000002
2022-12-27T06:55:56.138Z,15.459999999999999
2022-12-27T07:00:52.444Z,16.52
2022-12-27T07:05:47.628Z,17.44
2022-12-27T07:15:48.127Z,22.94
2022-12-27T07:20:44.385Z,40.4
2022-12-27T07:25:40.617Z,55.739999999999995
2022-12-27T07:30:38.885Z,86.08
2022-12-27T07:35:36.278Z,72.66
2022-12-27T07:40:35.436Z,87.25999999999999
2022-12-27T07:45:31.735Z,105.9
2022-12-27T07:50:27.998Z,23.32
2022-12-27T07:55:24.198Z,29.880000000000003
2022-12-27T08:00:20.464Z,31.74
2022-12-27T08:05:16.673Z,106.47999999999999
2022-12-27T08:10:13.986Z,53.6
2022-12-27T08:15:11.227Z,38.67999999999999
2022-12-27T08:20:10.483Z,21.679999999999996
2022-12-27T08:25:07.706Z,24.3
2022-12-27T08:30:04.018Z,28.52
2022-12-27T08:35:18.241Z,21.06
2022-12-27T08:45:06.708Z,21.06
2022-12-27T08:50:03.010Z,47.86
2022-12-27T08:54:59.304Z,18
2022-12-27T08:59:55.507Z,26.18
2022-12-27T09:04:51.756Z,14.6
2022-12-27T09:09:48.053Z,24.9
2022-12-27T09:14:44.294Z,23.919999999999998
2022-12-27T09:19:41.529Z,13.12
2022-12-27T09:24:37.822Z,22.419999999999998
2022-12-27T09:29:34.077Z,25.6
2022-12-27T09:34:30.346Z,10.540000000000001
2022-12-27T09:39:26.575Z,11.540000000000001
2022-12-27T09:44:29.883Z,13.26
2022-12-27T09:49:30.055Z,9.08
2022-12-27T09:54:31.315Z,4.84
2022-12-27T09:59:33.590Z,7.68
2022-12-27T10:05:09.936Z,5.04
2022-12-27T10:09:48.068Z,5.720000000000001
2022-12-27T10:14:55.260Z,2.9800000000000004
2022-12-27T10:20:01.474Z,7.12
2022-12-27T10:25:04.722Z,8.78
2022-12-27T10:30:01.019Z,6.4799999999999995
2022-12-27T10:34:57.277Z,5.159999999999999
2022-12-27T10:40:00.493Z,2.7600000000000002
2022-12-27T10:45:01.745Z,5.98
2022-12-27T10:50:02.005Z,10.260000000000002
2022-12-27T10:54:59.271Z,4.76
2022-12-27T11:00:07.479Z,7.4
2022-12-27T11:05:03.737Z,9.940000000000001
2022-12-27T11:10:09.035Z,7.38
2022-12-27T11:15:06.417Z,9.58
2022-12-27T11:20:05.519Z,6.16
2022-12-27T11:25:01.807Z,4.94
2022-12-27T11:29:59.027Z,5.380000000000001
2022-12-27T11:34:59.285Z,4.58
2022-12-27T11:40:17.478Z,8.92
2022-12-27T11:45:19.724Z,5.92
2022-12-27T11:50:32.926Z,5.28
2022-12-27T11:55:45.128Z,5.0200000000000005
2022-12-27T12:00:53.348Z,7.68
2022-12-27T12:06:04.612Z,6.260000000000001
2022-12-27T12:11:11.842Z,5.619999999999999
2022-12-27T12:16:23.141Z,9.979999999999999
2022-12-27T12:21:31.290Z,7.039999999999999
2022-12-27T12:26:39.561Z,7.279999999999999
2022-12-27T12:31:52.811Z,9.08
2022-12-27T12:37:06.923Z,6.140000000000001
2022-12-27T12:42:18.603Z,6.660000000000001
2022-12-27T12:47:25.443Z,7.18
2022-12-27T12:52:34.685Z,7.2
2022-12-27T12:57:42.874Z,8.5
2022-12-27T13:02:54.250Z,9.7
2022-12-27T13:08:09.291Z,11.439999999999998
2022-12-27T13:13:14.548Z,16.3
2022-12-27T13:18:26.590Z,13.74
2022-12-27T13:23:34.988Z,16.78
2022-12-27T13:28:39.222Z,11.26
2022-12-27T13:33:48.526Z,5.18
2022-12-27T13:39:06.645Z,11.84
2022-12-27T13:44:21.920Z,26.82
2022-12-27T13:49:33.307Z,32.62
2022-12-27T13:54:49.290Z,149.48000000000002
2022-12-27T14:00:02.714Z,37.74
2022-12-27T14:05:25.696Z,20.240000000000002
2022-12-27T14:10:39.962Z,19.759999999999998
2022-12-27T14:15:49.308Z,22.68
2022-12-27T14:20:58.387Z,28.740000000000002
2022-12-27T14:26:23.591Z,27.46
2022-12-27T14:31:37.675Z,19.240000000000002
2022-12-27T14:36:46.065Z,13.739999999999998
2022-12-27T14:41:53.284Z,16.18
2022-12-27T14:47:11.189Z,35.02
2022-12-27T14:52:25.661Z,25.56
2022-12-27T14:57:37.160Z,21.459999999999997
2022-12-27T15:03:01.209Z,59.120000000000005
2022-12-27T15:08:12.928Z,64.64000000000001
2022-12-27T15:18:31.785Z,20.4
2022-12-27T15:23:38.073Z,20.259999999999998
2022-12-27T15:33:55.436Z,23.440000000000005
2022-12-27T15:39:00.693Z,39.519999999999996
2022-12-27T15:44:16.561Z,39.64
2022-12-27T15:49:29.124Z,83.75999999999999
2022-12-27T15:54:48.838Z,32.64
2022-12-27T16:00:00.632Z,33.540000000000006
2022-12-27T16:05:13.057Z,26.8
2022-12-27T16:10:20.003Z,29.160000000000004
2022-12-27T16:15:34.802Z,53.94
2022-12-27T16:20:40.491Z,39.4
2022-12-27T16:25:45.700Z,42.900000000000006
2022-12-27T16:30:45.922Z,179.8
2022-12-27T16:36:00.824Z,199.48
2022-12-27T16:41:13.368Z,174.51999999999998
2022-12-27T16:46:24.619Z,35.3
2022-12-27T16:51:42.621Z,36.52
2022-12-27T16:56:47.050Z,51.7
2022-12-27T17:01:54.371Z,49.08
2022-12-27T17:07:04.533Z,53.3
2022-12-27T17:12:10.770Z,17.02
2022-12-27T17:17:15.964Z,22.220000000000002
2022-12-27T17:22:14.207Z,27.24
2022-12-27T17:27:27.197Z,23.3
2022-12-27T17:32:35.652Z,18.32
2022-12-27T17:37:41.883Z,26.9
2022-12-27T17:42:48.100Z,19.54
2022-12-27T17:48:01.161Z,18.3
2022-12-27T17:53:02.594Z,15.540000000000001
2022-12-27T17:58:01.016Z,28.22
2022-12-27T18:03:02.205Z,96.74
2022-12-27T18:08:05.726Z,115.05999999999999
2022-12-27T18:13:07.574Z,16.78
2022-12-27T18:18:11.460Z,16.48
2022-12-27T18:23:15.146Z,16.82
2022-12-27T18:28:15.328Z,19.14
2022-12-27T18:33:12.558Z,11.9
2022-12-27T18:38:09.860Z,12.179999999999998
2022-12-27T18:43:13.559Z,10.120000000000001
2022-12-27T18:48:11.333Z,10.9
2022-12-27T18:53:19.582Z,7.9
2022-12-27T18:58:20.644Z,7.459999999999999
2022-12-27T19:03:23.668Z,22.04
2022-12-27T19:08:42.381Z,10.379999999999999
2022-12-27T19:13:43.412Z,15.16
2022-12-27T19:18:48.733Z,16.28
2022-12-27T19:23:51.002Z,26.919999999999998
2022-12-27T19:28:57.735Z,27.32
2022-12-27T19:34:01.497Z,24.159999999999997
2022-12-27T19:38:58.688Z,24.64
2022-12-27T19:43:55.967Z,19.8
2022-12-27T19:49:31.626Z,21.700000000000003
2022-12-27T19:53:59.530Z,25.12
2022-12-27T19:59:01.701Z,36.98
2022-12-27T20:04:01.945Z,26.939999999999998
2022-12-27T20:09:04.109Z,18.660000000000004
2022-12-27T20:14:01.692Z,28.279999999999994
2022-12-27T20:18:56.724Z,30.82
2022-12-27T20:23:58.931Z,41.56
2022-12-27T20:28:55.278Z,16.18
2022-12-27T20:33:52.787Z,17.48
2022-12-27T20:38:59.919Z,36.82
2022-12-27T20:44:04.346Z,22.78
2022-12-27T20:49:08.218Z,17.36
2022-12-27T20:54:10.461Z,41.239999999999995
2022-12-27T20:59:06.699Z,30.080000000000002
2022-12-27T21:04:11.426Z,43.48
2022-12-27T21:09:09.262Z,45.120000000000005
2022-12-27T21:14:16.076Z,51.019999999999996
2022-12-27T21:19:16.664Z,32.96
2022-12-27T21:24:13.970Z,20.18
2022-12-27T21:29:10.163Z,38.48
2022-12-27T21:34:11.413Z,48.96
2022-12-27T21:39:07.737Z,17.5
2022-12-27T21:44:09.668Z,11.8
2022-12-27T21:49:13.215Z,13.539999999999997
2022-12-27T21:54:09.588Z,108.52000000000001
2022-12-27T22:04:17.931Z,70.03999999999999
2022-12-27T22:09:15.526Z,57.879999999999995
2022-12-27T22:14:16.444Z,29.72
2022-12-27T22:19:12.682Z,28.82
2022-12-27T22:24:11.938Z,20.32
2022-12-27T22:29:11.123Z,21.8
2022-12-27T22:34:12.527Z,29.28
2022-12-27T22:39:08.783Z,39.6
2022-12-27T22:44:15.010Z,17.779999999999998
2022-12-27T22:49:12.173Z,17.3
2022-12-27T22:54:08.478Z,16.9
2022-12-27T22:59:05.691Z,16.78
2022-12-27T23:04:02.961Z,20.26
2022-12-27T23:08:59.235Z,20.720000000000002
2022-12-27T23:13:56.485Z,41
2022-12-27T23:18:52.711Z,34.519999999999996
2022-12-27T23:23:52.237Z,19.360000000000003
2022-12-27T23:28:49.225Z,12.919999999999998
2022-12-27T23:33:45.509Z,15.14
2022-12-27T23:38:41.758Z,17.660000000000004
2022-12-27T23:43:52.093Z,12.4
2022-12-27T23:48:40.247Z,13.040000000000001
2022-12-27T23:53:36.532Z,18.16
2022-12-27T23:58:32.772Z,50.7
